Time;durP1;ratioP1;P1;durP2;ratioP2;P2;SDS_P1;SDS_P2;PMS_P1;PMS_P2;Temp;Humidity;BMP_temperature;BMP_pressure;BME280_temperature;BME280_humidity;BME280_pressure;Samples;Min_cycle;Max_cycle;Signal;HPM_P1;HPM_P2
2022/08/14 00:01:17;;;;;;;5.15;4.30;;;26.80;44.70;;;;;;6158816;23;20059;-77
2022/08/14 00:03:42;;;;;;;6.30;4.75;;;26.80;44.80;;;;;;6158627;23;20032;-77
2022/08/14 00:06:08;;;;;;;7.82;4.47;;;26.70;45.00;;;;;;6159166;23;20044;-77
2022/08/14 00:08:34;;;;;;;7.03;3.88;;;26.40;45.50;;;;;;6158266;23;20453;-77
2022/08/14 00:11:00;;;;;;;5.47;3.63;;;26.40;45.40;;;;;;6158718;23;20038;-77
2022/08/14 00:13:28;;;;;;;9.57;3.75;;;26.40;45.40;;;;;;6158329;23;20009;-77
2022/08/14 00:15:57;;;;;;;5.45;4.07;;;26.30;45.60;;;;;;6158985;23;20450;-77
2022/08/14 00:18:25;;;;;;;4.63;4.22;;;26.30;45.80;;;;;;6158805;23;20005;-79
2022/08/14 00:20:51;;;;;;;5.25;3.90;;;26.10;46.40;;;;;;6158819;23;20009;-79
2022/08/14 00:23:18;;;;;;;5.35;4.40;;;25.90;48.20;;;;;;6158635;23;20140;-79
2022/08/14 00:25:47;;;;;;;8.25;4.60;;;25.70;50.40;;;;;;6159064;23;20425;-79
2022/08/14 00:28:13;;;;;;;6.68;4.75;;;25.70;53.00;;;;;;6158007;23;20008;-78
2022/08/14 00:30:42;;;;;;;8.02;5.03;;;25.60;54.70;;;;;;6158327;23;20036;-76
2022/08/14 00:33:08;;;;;;;7.53;5.28;;;25.40;56.20;;;;;;6158503;23;20434;-79
2022/08/14 00:35:34;;;;;;;9.18;6.10;;;25.30;57.80;;;;;;6159065;23;20049;-79
2022/08/14 00:38:00;;;;;;;8.93;6.57;;;25.20;58.70;;;;;;6158885;23;20001;-79
2022/08/14 00:40:26;;;;;;;9.70;7.20;;;25.10;60.10;;;;;;6158727;23;20076;-79
2022/08/14 00:42:52;;;;;;;9.30;6.25;;;25.00;60.50;;;;;;6158743;23;20422;-79
2022/08/14 00:45:18;;;;;;;11.80;6.88;;;25.20;59.10;;;;;;6157741;23;20027;-79
2022/08/14 00:47:46;;;;;;;9.50;7.10;;;25.30;60.00;;;;;;6158655;23;20010;-79
2022/08/14 00:50:17;;;;;;;8.18;7.00;;;25.20;60.60;;;;;;6158062;23;19998;-78
2022/08/14 00:52:45;;;;;;;12.30;7.57;;;25.20;61.10;;;;;;6158374;23;19997;-79
2022/08/14 00:55:11;;;;;;;13.30;7.97;;;25.10;61.60;;;;;;6158457;23;20006;-76
2022/08/14 00:57:38;;;;;;;10.50;8.05;;;25.20;61.60;;;;;;6158753;23;20012;-79
2022/08/14 01:00:14;;;;;;;8.70;7.55;;;25.20;61.60;;;;;;6158739;23;20002;-76
2022/08/14 01:02:42;;;;;;;8.10;7.13;;;25.30;61.70;;;;;;6158875;23;20005;-78
2022/08/14 01:05:22;;;;;;;8.05;6.93;;;25.20;62.30;;;;;;6157782;23;20016;-78
2022/08/14 01:07:50;;;;;;;9.40;6.93;;;25.20;62.60;;;;;;6157871;23;20013;-79
2022/08/14 01:10:16;;;;;;;8.20;6.78;;;25.30;62.10;;;;;;6158231;23;19997;-79
2022/08/14 01:12:42;;;;;;;8.05;6.72;;;25.30;62.20;;;;;;6158652;23;19997;-79
2022/08/14 01:15:08;;;;;;;10.38;7.57;;;25.00;63.10;;;;;;6158501;23;20009;-76
2022/08/14 01:23:07;;;;;;;9.57;7.68;;;24.80;64.30;;;;;;6157866;23;20033;-76
2022/08/14 01:25:37;;;;;;;9.27;6.70;;;24.70;64.80;;;;;;6157130;23;20036;-78
2022/08/14 01:28:02;;;;;;;9.80;6.55;;;24.70;64.60;;;;;;6158127;23;20085;-79
2022/08/14 01:30:31;;;;;;;8.82;7.22;;;24.70;65.10;;;;;;6132689;23;20083;-79
2022/08/14 01:32:57;;;;;;;9.77;6.57;;;24.70;64.80;;;;;;6158066;23;19997;-76
2022/08/14 01:35:27;;;;;;;7.93;6.25;;;24.80;64.20;;;;;;6158424;23;20001;-78
2022/08/14 01:37:53;;;;;;;9.75;6.65;;;24.80;64.50;;;;;;6158639;23;20012;-78
2022/08/14 01:40:22;;;;;;;7.85;7.10;;;24.80;64.40;;;;;;6158536;23;20010;-79
2022/08/14 01:42:48;;;;;;;9.75;6.45;;;24.80;64.00;;;;;;6156501;23;20434;-78
2022/08/14 01:45:14;;;;;;;10.82;6.82;;;24.90;63.90;;;;;;6158556;23;20005;-79
2022/08/14 01:47:39;;;;;;;7.88;6.45;;;24.90;63.70;;;;;;6158196;23;20005;-79
2022/08/14 01:50:07;;;;;;;9.95;7.10;;;24.80;64.20;;;;;;6158137;23;20008;-79
2022/08/14 01:52:35;;;;;;;9.55;6.68;;;24.70;64.60;;;;;;6132118;23;20002;-78
2022/08/14 01:55:04;;;;;;;8.32;6.50;;;24.80;63.90;;;;;;6158166;23;20026;-78
2022/08/14 01:57:32;;;;;;;8.18;6.53;;;24.90;63.30;;;;;;6158292;23;20350;-79
2022/08/14 01:59:57;;;;;;;8.27;6.47;;;25.00;63.40;;;;;;6157881;23;20001;-79
2022/08/14 02:02:23;;;;;;;7.50;6.38;;;25.00;63.20;;;;;;6130972;23;20006;-78
2022/08/14 02:04:49;;;;;;;8.73;7.13;;;25.10;62.50;;;;;;6159670;23;20013;-79
2022/08/14 02:07:14;;;;;;;8.20;6.13;;;25.10;62.60;;;;;;6159637;23;20105;-79
2022/08/14 02:09:41;;;;;;;8.25;7.43;;;25.10;62.00;;;;;;6158527;23;20022;-79
2022/08/14 02:12:08;;;;;;;7.15;6.40;;;25.20;62.00;;;;;;6160239;23;20001;-78
2022/08/14 02:14:34;;;;;;;9.95;7.05;;;25.10;62.30;;;;;;6159859;23;20008;-79
2022/08/14 02:17:00;;;;;;;8.70;7.10;;;25.10;61.90;;;;;;6160159;23;20013;-78
2022/08/14 02:19:29;;;;;;;8.60;6.88;;;25.10;62.40;;;;;;6158980;23;20006;-78
2022/08/14 02:21:58;;;;;;;7.72;6.85;;;24.90;63.80;;;;;;6159450;23;20434;-78
2022/08/14 02:24:29;;;;;;;11.60;6.47;;;24.70;64.80;;;;;;6160489;23;20009;-79
2022/08/14 02:26:58;;;;;;;10.27;7.28;;;24.50;65.70;;;;;;6160216;23;20342;-78
2022/08/14 02:29:27;;;;;;;11.20;8.07;;;24.60;65.90;;;;;;6159803;23;19998;-78
2022/08/14 02:31:56;;;;;;;18.27;8.90;;;24.30;69.10;;;;;;6159932;23;20005;-78
2022/08/14 02:34:35;;;;;;;12.65;8.55;;;23.90;71.90;;;;;;6159755;23;20045;-78
2022/08/14 02:37:10;;;;;;;15.25;9.40;;;23.40;75.80;;;;;;6157505;23;20013;-78
2022/08/14 02:39:40;;;;;;;15.32;9.40;;;23.20;76.30;;;;;;6159356;23;20006;-78
2022/08/14 02:42:08;;;;;;;8.73;6.15;;;22.60;79.20;;;;;;6159585;23;20002;-78
2022/08/14 02:44:34;;;;;;;11.35;8.40;;;22.30;77.30;;;;;;6158631;23;20382;-78
2022/08/14 02:47:03;;;;;;;11.40;8.23;;;22.20;77.70;;;;;;6158099;23;20096;-78
2022/08/14 02:49:28;;;;;;;12.13;8.38;;;22.20;76.60;;;;;;6159628;23;20016;-78
2022/08/14 02:51:56;;;;;;;13.02;9.65;;;22.20;76.20;;;;;;6158534;23;20033;-78
2022/08/14 02:54:22;;;;;;;13.95;9.27;;;22.30;74.80;;;;;;6157218;23;20010;-78
2022/08/14 02:56:49;;;;;;;10.57;8.82;;;22.40;73.70;;;;;;6159055;23;20060;-78
2022/08/14 02:59:15;;;;;;;11.88;9.15;;;22.40;71.80;;;;;;6158141;23;20028;-78
2022/08/14 03:01:42;;;;;;;14.32;10.23;;;22.30;72.60;;;;;;6158350;23;20006;-78
2022/08/14 03:04:09;;;;;;;15.80;10.98;;;22.30;75.40;;;;;;6159788;23;20025;-78
2022/08/14 03:06:37;;;;;;;15.43;10.48;;;22.30;77.40;;;;;;6159621;23;20033;-77
2022/08/14 03:09:04;;;;;;;11.20;8.93;;;22.30;78.40;;;;;;6158433;23;20006;-78
2022/08/14 03:11:31;;;;;;;13.43;9.02;;;22.30;78.10;;;;;;6159672;23;20010;-78
2022/08/14 03:13:57;;;;;;;13.50;8.95;;;22.30;76.70;;;;;;6159632;23;19997;-78
2022/08/14 03:16:25;;;;;;;14.10;9.80;;;22.30;76.90;;;;;;6157624;23;20085;-78
2022/08/14 03:18:53;;;;;;;14.50;9.65;;;22.30;76.70;;;;;;6158430;23;20029;-78
2022/08/14 03:21:38;;;;;;;15.10;11.10;;;22.40;75.90;;;;;;6159649;23;20441;-78
2022/08/14 03:26:33;;;;;;;18.10;10.33;;;22.50;75.80;;;;;;6159796;23;20020;-78
2022/08/14 03:29:00;;;;;;;13.48;9.20;;;22.70;75.10;;;;;;6159580;23;20562;-78
2022/08/14 03:31:25;;;;;;;11.40;8.65;;;22.70;74.50;;;;;;6157930;23;20005;-78
2022/08/14 03:33:52;;;;;;;13.38;8.52;;;22.70;74.30;;;;;;6159457;23;20021;-78
2022/08/14 03:36:20;;;;;;;11.98;8.13;;;22.70;73.80;;;;;;6159268;23;20514;-77
2022/08/14 03:38:48;;;;;;;12.48;7.43;;;22.60;73.70;;;;;;6159513;23;20005;-78
2022/08/14 03:41:20;;;;;;;7.82;5.95;;;22.50;74.90;;;;;;6159505;23;20009;-78
2022/08/14 03:44:04;;;;;;;9.95;6.07;;;22.30;73.80;;;;;;6159178;23;20017;-78
2022/08/14 03:46:33;;;;;;;10.30;5.90;;;22.20;74.10;;;;;;6158822;23;20037;-78
2022/08/14 03:49:03;;;;;;;11.63;7.28;;;22.30;74.70;;;;;;6157423;23;20010;-77
2022/08/14 03:51:28;;;;;;;9.60;7.00;;;22.30;74.40;;;;;;6159477;23;20004;-78
2022/08/14 03:54:00;;;;;;;10.95;7.25;;;22.20;74.70;;;;;;6159014;23;20434;-78
2022/08/14 03:56:26;;;;;;;12.13;8.50;;;22.10;76.10;;;;;;6158247;23;20014;-78
2022/08/14 03:58:55;;;;;;;11.68;7.88;;;22.10;75.80;;;;;;6158683;23;20001;-78
2022/08/14 04:01:26;;;;;;;13.88;8.88;;;22.00;76.60;;;;;;6159135;23;20029;-78
2022/08/14 04:03:54;;;;;;;15.48;8.43;;;21.80;77.30;;;;;;6157913;23;20449;-78
2022/08/14 04:06:20;;;;;;;13.55;8.82;;;21.90;77.60;;;;;;6157462;23;20031;-78
2022/08/14 04:08:48;;;;;;;15.63;9.70;;;21.90;76.90;;;;;;6159185;23;20001;-78
2022/08/14 04:11:15;;;;;;;13.45;8.90;;;21.80;77.80;;;;;;6157778;23;20464;-78
2022/08/14 04:13:42;;;;;;;21.25;9.32;;;21.80;77.90;;;;;;6159272;23;20449;-78
2022/08/14 04:16:22;;;;;;;17.27;9.15;;;21.80;77.80;;;;;;6158737;23;19998;-78
2022/08/14 04:18:51;;;;;;;14.10;9.23;;;21.90;77.60;;;;;;6159147;23;20029;-78
2022/08/14 04:21:17;;;;;;;15.90;8.55;;;21.80;78.30;;;;;;6158898;23;20013;-78
2022/08/14 04:23:48;;;;;;;14.95;9.00;;;21.80;78.30;;;;;;6159181;23;20033;-78
2022/08/14 04:26:17;;;;;;;15.45;8.55;;;21.80;78.10;;;;;;6158867;23;20386;-78
2022/08/14 04:28:44;;;;;;;18.50;9.15;;;21.90;77.80;;;;;;6158520;23;20086;-78
2022/08/14 04:31:10;;;;;;;13.57;8.02;;;21.80;77.70;;;;;;6158863;23;20009;-78
2022/08/14 04:33:36;;;;;;;9.68;7.00;;;21.80;77.00;;;;;;6158773;23;20378;-78
2022/08/14 04:36:03;;;;;;;14.50;7.10;;;21.80;77.20;;;;;;6159066;23;20009;-78
2022/08/14 04:43:57;;;;;;;11.43;7.78;;;21.40;77.90;;;;;;6158985;23;20350;-78
2022/08/14 04:46:34;;;;;;;11.73;7.20;;;21.50;78.50;;;;;;6158444;23;20013;-77
2022/08/14 04:49:00;;;;;;;12.85;7.95;;;21.50;77.90;;;;;;6159338;23;20072;-78
2022/08/14 04:51:27;;;;;;;13.75;7.43;;;21.60;78.00;;;;;;6158594;23;20035;-78
2022/08/14 04:53:53;;;;;;;11.15;7.20;;;21.70;77.40;;;;;;6158577;23;20483;-77
2022/08/14 04:56:24;;;;;;;10.88;7.95;;;21.70;77.90;;;;;;6158850;23;20005;-78
2022/08/14 04:58:56;;;;;;;;;;;21.60;78.50;;;;;;6159722;23;20521;-78
2022/08/14 05:01:23;;;;;;;9.82;6.55;;;21.60;78.20;;;;;;6158450;23;19900;-77
2022/08/14 05:03:49;;;;;;;11.02;7.55;;;21.70;77.80;;;;;;6156648;23;20006;-77
2022/08/14 05:06:14;;;;;;;12.77;7.88;;;21.70;78.40;;;;;;6157196;23;20093;-77
2022/08/14 05:08:42;;;;;;;15.77;8.20;;;21.50;79.00;;;;;;6158700;23;20028;-76
2022/08/14 05:11:09;;;;;;;11.98;8.05;;;21.60;79.10;;;;;;6156949;23;20005;-77
2022/08/14 05:13:39;;;;;;;13.02;7.45;;;21.50;79.00;;;;;;6157248;23;20012;-77
2022/08/14 05:16:06;;;;;;;10.48;7.47;;;21.40;79.10;;;;;;6158758;23;20001;-77
2022/08/14 05:18:34;;;;;;;13.65;7.55;;;21.20;79.40;;;;;;6158605;23;20040;-77
2022/08/14 05:21:05;;;;;;;11.27;6.68;;;21.20;80.10;;;;;;6158325;23;20005;-77
2022/08/14 05:23:34;;;;;;;13.73;8.00;;;21.30;79.20;;;;;;6157159;23;20009;-77
2022/08/14 05:26:01;;;;;;;15.45;7.75;;;21.30;79.00;;;;;;6158560;23;20464;-77
2022/08/14 05:28:30;;;;;;;13.02;8.27;;;21.40;78.80;;;;;;6158340;23;20006;-77
2022/08/14 05:30:58;;;;;;;12.50;8.27;;;21.40;78.80;;;;;;6156787;23;20010;-77
2022/08/14 05:33:27;;;;;;;11.30;7.68;;;21.50;79.10;;;;;;6158386;23;19998;-77
2022/08/14 05:35:59;;;;;;;13.93;8.32;;;21.50;78.80;;;;;;6156718;23;20005;-77
2022/08/14 05:38:28;;;;;;;14.45;9.32;;;21.60;78.70;;;;;;6158371;23;20103;-78
2022/08/14 05:40:55;;;;;;;13.73;9.05;;;21.60;78.20;;;;;;6158541;23;20056;-77
2022/08/14 05:43:29;;;;;;;15.55;9.63;;;21.50;78.60;;;;;;6157968;23;20006;-78
2022/08/14 05:45:59;;;;;;;13.65;10.02;;;21.40;78.00;;;;;;6158360;23;20033;-77
2022/08/14 05:48:25;;;;;;;15.85;9.70;;;21.40;77.70;;;;;;6158256;23;20508;-79
2022/08/14 05:50:53;;;;;;;12.65;9.93;;;21.40;78.10;;;;;;6157916;23;20002;-76
2022/08/14 05:53:24;;;;;;;15.32;9.75;;;21.60;77.60;;;;;;6156887;23;20001;-78
2022/08/14 05:55:51;;;;;;;16.15;10.38;;;21.60;77.00;;;;;;6154536;23;20033;-67
2022/08/14 05:58:17;;;;;;;12.20;8.85;;;21.70;77.70;;;;;;6156940;23;20517;-66
2022/08/14 06:00:45;;;;;;;13.30;10.10;;;21.70;76.80;;;;;;6155780;23;20012;-67
2022/08/14 06:03:15;;;;;;;15.02;9.95;;;21.70;77.00;;;;;;6156695;23;20390;-66
2022/08/14 06:05:42;;;;;;;15.30;11.07;;;21.70;76.80;;;;;;6158140;23;20052;-66
2022/08/14 06:08:22;;;;;;;17.15;10.43;;;21.70;76.80;;;;;;6157380;23;20018;-66
2022/08/14 06:10:50;;;;;;;16.58;11.98;;;21.50;77.10;;;;;;6158066;23;20009;-66
2022/08/14 06:13:17;;;;;;;18.40;11.80;;;21.50;77.40;;;;;;6157756;23;20002;-66
2022/08/14 06:15:43;;;;;;;19.60;12.25;;;21.40;77.80;;;;;;6158097;23;20333;-67
2022/08/14 06:18:10;;;;;;;15.98;12.13;;;21.40;78.30;;;;;;6155869;23;20081;-68
2022/08/14 06:20:36;;;;;;;20.88;13.35;;;21.40;78.30;;;;;;6157545;23;20029;-68
2022/08/14 06:23:03;;;;;;;17.80;11.90;;;21.20;78.80;;;;;;6158085;23;20005;-68
2022/08/14 06:25:29;;;;;;;17.48;13.40;;;21.30;78.90;;;;;;6158137;23;20009;-67
2022/08/14 06:27:55;;;;;;;21.45;14.02;;;21.30;78.70;;;;;;6158073;23;20001;-71
2022/08/14 06:30:23;;;;;;;20.58;14.30;;;21.30;79.20;;;;;;6155071;23;20021;-66
2022/08/14 06:32:49;;;;;;;21.00;13.70;;;21.30;79.00;;;;;;6157110;23;19998;-67
2022/08/14 06:35:17;;;;;;;20.67;14.13;;;21.30;79.40;;;;;;6148934;23;20009;-65
2022/08/14 06:37:51;;;;;;;22.55;14.40;;;21.30;79.40;;;;;;6136178;23;20009;-67
2022/08/14 06:40:22;;;;;;;21.98;15.57;;;21.30;79.10;;;;;;6157697;23;20010;-67
2022/08/14 06:42:48;;;;;;;23.65;13.30;;;21.40;79.30;;;;;;6154288;23;20005;-78
2022/08/14 06:45:15;;;;;;;19.63;12.82;;;21.40;78.90;;;;;;6154723;23;20045;-78
2022/08/14 06:47:42;;;;;;;24.40;13.75;;;21.60;78.10;;;;;;6155712;23;20014;-77
2022/08/14 06:50:14;;;;;;;17.42;12.77;;;21.80;77.60;;;;;;6145458;23;20338;-78
2022/08/14 06:52:41;;;;;;;16.35;12.60;;;21.90;77.50;;;;;;6155929;23;20498;-78
2022/08/14 06:55:09;;;;;;;23.38;13.65;;;22.00;77.10;;;;;;6151348;23;20333;-78
2022/08/14 06:57:40;;;;;;;20.10;13.82;;;22.10;76.20;;;;;;6156228;23;20013;-78
2022/08/14 07:00:09;;;;;;;19.50;13.18;;;22.20;76.40;;;;;;6155942;23;20005;-79
2022/08/14 07:08:05;;;;;;;17.58;12.63;;;22.20;76.40;;;;;;6155935;23;20024;-78
2022/08/14 07:10:31;;;;;;;18.73;13.20;;;22.30;75.90;;;;;;6155965;23;20006;-76
2022/08/14 07:12:57;;;;;;;18.23;12.35;;;22.30;76.10;;;;;;6157857;23;19997;-78
2022/08/14 07:15:23;;;;;;;20.88;13.05;;;22.30;76.30;;;;;;6157765;23;20008;-77
2022/08/14 07:17:50;;;;;;;20.63;13.32;;;22.40;76.10;;;;;;6156267;23;20009;-78
2022/08/14 07:20:19;;;;;;;19.50;12.32;;;22.30;76.20;;;;;;6157615;23;20101;-78
2022/08/14 07:22:49;;;;;;;15.63;12.32;;;22.40;76.10;;;;;;6157997;23;20005;-78
2022/08/14 07:25:15;;;;;;;21.48;14.13;;;22.30;76.10;;;;;;6156791;23;20012;-78
2022/08/14 07:27:41;;;;;;;18.88;12.98;;;22.40;76.00;;;;;;6157270;23;20044;-77
2022/08/14 07:30:08;;;;;;;22.65;13.88;;;22.40;75.90;;;;;;6156099;23;19998;-77
2022/08/14 07:32:34;;;;;;;22.08;14.02;;;22.50;75.60;;;;;;6157541;23;20060;-77
2022/08/14 07:34:59;;;;;;;19.88;13.57;;;22.50;75.50;;;;;;6156662;23;20006;-77
2022/08/14 07:37:25;;;;;;;25.67;15.43;;;22.50;75.70;;;;;;6158070;23;20061;-77
2022/08/14 07:39:51;;;;;;;19.40;13.45;;;22.50;76.50;;;;;;6157379;23;20063;-77
2022/08/14 07:42:17;;;;;;;22.17;13.75;;;22.50;75.60;;;;;;6157220;23;20009;-77
2022/08/14 07:44:42;;;;;;;18.77;13.68;;;22.50;76.50;;;;;;6158556;23;20005;-77
2022/08/14 07:47:08;;;;;;;19.08;13.00;;;22.50;77.10;;;;;;6155556;23;20060;-77
2022/08/14 07:49:34;;;;;;;20.10;12.63;;;22.50;77.10;;;;;;6157723;23;20005;-77
2022/08/14 07:52:03;;;;;;;20.17;13.02;;;22.50;76.80;;;;;;6159333;23;20076;-77
2022/08/14 07:54:30;;;;;;;17.40;12.70;;;22.50;76.80;;;;;;6159277;23;20009;-77
2022/08/14 07:57:00;;;;;;;15.27;12.13;;;22.30;77.20;;;;;;6158694;23;20002;-77
2022/08/14 07:59:26;;;;;;;17.38;13.10;;;22.30;77.40;;;;;;6159250;23;20011;-77
2022/08/14 08:01:52;;;;;;;20.50;13.85;;;22.30;77.20;;;;;;6158838;23;20090;-77
2022/08/14 08:04:27;;;;;;;23.25;14.65;;;22.30;76.80;;;;;;6158623;23;19997;-77
2022/08/14 08:06:54;;;;;;;21.58;15.07;;;22.30;77.30;;;;;;6158672;23;20029;-77
2022/08/14 08:09:25;;;;;;;22.13;14.13;;;22.40;76.80;;;;;;6159125;23;20713;-77
2022/08/14 08:11:53;;;;;;;19.90;13.77;;;22.50;76.30;;;;;;6157827;23;20005;-77
2022/08/14 08:14:19;;;;;;;19.90;14.48;;;22.50;76.20;;;;;;6156599;23;20002;-77
2022/08/14 08:16:46;;;;;;;20.98;13.63;;;22.50;76.10;;;;;;6159142;23;20002;-77
2022/08/14 08:19:12;;;;;;;17.77;13.48;;;22.50;76.40;;;;;;6159198;23;20051;-77
2022/08/14 08:21:40;;;;;;;21.50;13.45;;;22.40;76.50;;;;;;6156947;23;20104;-77
2022/08/14 08:24:06;;;;;;;20.70;14.63;;;22.40;76.70;;;;;;6159079;23;20056;-77
2022/08/14 08:26:32;;;;;;;19.77;12.95;;;22.30;77.10;;;;;;6159002;23;20002;-77
2022/08/14 08:28:58;;;;;;;21.30;13.32;;;22.20;77.80;;;;;;6157632;23;20036;-77
2022/08/14 08:31:25;;;;;;;19.65;12.55;;;22.10;78.40;;;;;;6156343;23;20002;-77
2022/08/14 08:33:51;;;;;;;23.77;13.82;;;22.10;78.50;;;;;;6158842;23;20389;-77
2022/08/14 08:36:17;;;;;;;25.55;15.13;;;22.00;78.90;;;;;;6158585;23;20052;-77
2022/08/14 08:38:45;;;;;;;19.75;14.23;;;22.00;78.60;;;;;;6157879;23;20025;-77
2022/08/14 08:41:11;;;;;;;21.33;13.60;;;22.10;78.60;;;;;;6153015;23;20013;-77
2022/08/14 08:43:38;;;;;;;21.42;13.68;;;21.90;80.20;;;;;;6157822;23;20010;-77
2022/08/14 08:46:07;;;;;;;21.75;14.02;;;21.70;81.40;;;;;;6158199;23;20032;-77
2022/08/14 08:48:48;;;;;;;24.17;14.75;;;21.70;80.40;;;;;;6158516;23;20008;-77
2022/08/14 08:51:22;;;;;;;25.23;15.23;;;21.60;81.50;;;;;;6158637;23;20007;-77
2022/08/14 08:54:00;;;;;;;22.15;15.20;;;21.70;81.50;;;;;;6157078;23;20006;-77
2022/08/14 08:56:52;;;;;;;26.90;16.73;;;21.90;80.70;;;;;;6157889;23;20417;-77
2022/08/14 08:59:19;;;;;;;21.92;14.07;;;22.00;79.90;;;;;;6156695;23;20010;-77
2022/08/14 09:01:55;;;;;;;19.10;13.65;;;22.20;80.20;;;;;;6156133;23;20069;-77
2022/08/14 09:04:21;;;;;;;25.30;14.73;;;22.10;79.40;;;;;;6156500;23;20010;-78
2022/08/14 09:06:48;;;;;;;24.25;14.88;;;22.00;80.00;;;;;;6157754;23;20112;-77
2022/08/14 09:09:33;;;;;;;26.90;15.65;;;22.10;80.00;;;;;;6158649;23;20033;-77
2022/08/14 09:12:00;;;;;;;23.48;15.07;;;22.30;79.10;;;;;;6156740;23;20012;-77
2022/08/14 09:14:28;;;;;;;25.20;14.98;;;22.40;78.40;;;;;;6158357;23;20013;-78
2022/08/14 09:16:55;;;;;;;23.73;14.88;;;22.50;78.20;;;;;;6156756;23;20002;-78
2022/08/14 09:19:21;;;;;;;24.67;16.67;;;22.70;77.70;;;;;;6157944;23;20002;-78
2022/08/14 09:21:47;;;;;;;23.50;15.40;;;22.70;77.80;;;;;;6158208;23;20077;-76
2022/08/14 09:24:13;;;;;;;23.17;15.10;;;22.70;78.00;;;;;;6158512;23;19997;-76
2022/08/14 09:26:40;;;;;;;22.80;15.13;;;22.80;77.40;;;;;;6157628;23;19998;-76
2022/08/14 09:29:07;;;;;;;24.02;15.93;;;22.80;77.30;;;;;;6158762;23;20002;-76
2022/08/14 09:31:35;;;;;;;23.55;15.10;;;22.80;76.80;;;;;;6157790;23;20002;-76
2022/08/14 09:34:06;;;;;;;23.35;14.52;;;22.80;77.10;;;;;;6157975;23;20001;-76
2022/08/14 09:36:32;;;;;;;23.77;15.80;;;22.80;76.60;;;;;;6158744;23;20005;-76
2022/08/14 09:39:26;;;;;;;23.48;15.52;;;22.80;76.90;;;;;;6157720;23;20447;-76
2022/08/14 09:42:04;;;;;;;22.60;15.68;;;22.80;76.80;;;;;;6158500;23;20085;-77
2022/08/14 09:45:09;;;;;;;22.63;15.60;;;22.80;77.10;;;;;;6158293;23;20001;-76
2022/08/14 09:47:48;;;;;;;20.70;14.85;;;22.80;77.10;;;;;;6096434;23;20038;-77
2022/08/14 09:50:31;;;;;;;21.02;15.23;;;22.80;76.50;;;;;;6151434;23;20041;-76
2022/08/14 09:53:02;;;;;;;22.83;15.43;;;22.80;76.80;;;;;;6158165;23;19998;-77
2022/08/14 09:55:34;;;;;;;22.35;14.52;;;22.80;77.00;;;;;;6156189;23;19997;-76
2022/08/14 09:58:12;;;;;;;20.90;15.07;;;22.80;76.60;;;;;;6156758;23;20032;-77
2022/08/14 10:00:48;;;;;;;21.63;13.93;;;22.90;76.80;;;;;;6153082;23;20010;-77
2022/08/14 10:03:33;;;;;;;23.92;14.80;;;22.90;76.20;;;;;;6157349;23;20005;-79
2022/08/14 10:06:05;;;;;;;22.00;14.45;;;22.90;76.30;;;;;;6157896;23;20385;-79
2022/08/14 10:08:41;;;;;;;22.10;14.90;;;22.90;76.40;;;;;;6158167;23;20970;-78
2022/08/14 10:11:35;;;;;;;24.35;14.68;;;22.90;76.70;;;;;;6157400;23;20350;-79
2022/08/14 10:14:23;;;;;;;20.33;13.35;;;22.80;77.00;;;;;;6157288;23;20002;-79
2022/08/14 10:16:53;;;;;;;22.48;15.02;;;22.80;77.30;;;;;;6157867;23;20004;-79
2022/08/14 10:19:20;;;;;;;21.85;14.73;;;22.90;77.30;;;;;;6157115;23;20001;-83
2022/08/14 10:22:07;;;;;;;21.73;14.27;;;22.90;76.80;;;;;;6148968;23;20002;-82
2022/08/14 10:24:43;;;;;;;21.92;15.50;;;23.00;76.60;;;;;;6156349;23;20125;-84
2022/08/14 10:27:18;;;;;;;25.05;15.30;;;23.10;76.60;;;;;;6159728;23;20012;-84
2022/08/14 10:29:50;;;;;;;24.35;14.85;;;23.30;76.70;;;;;;6159067;23;20013;-87
2022/08/14 10:32:16;;;;;;;20.15;13.90;;;23.30;75.80;;;;;;6159860;23;20002;-82
2022/08/14 10:34:41;;;;;;;23.85;15.07;;;23.40;75.90;;;;;;6159059;23;20279;-81
2022/08/14 10:37:18;;;;;;;20.85;13.93;;;23.40;76.00;;;;;;6158133;23;20036;-80
2022/08/14 10:39:56;;;;;;;22.52;13.57;;;23.40;76.00;;;;;;6159890;23;20010;-83
2022/08/14 10:42:22;;;;;;;19.05;12.95;;;23.50;75.50;;;;;;6159646;23;20001;-84
2022/08/14 10:44:49;;;;;;;19.42;13.70;;;23.50;75.30;;;;;;6159715;23;20452;-83
2022/08/14 10:47:17;;;;;;;19.02;13.00;;;23.40;75.80;;;;;;6159780;23;20449;-79
2022/08/14 10:49:59;;;;;;;28.50;18.25;;;23.40;75.50;;;;;;6159724;23;20334;-78
2022/08/14 10:52:33;;;;;;;22.35;13.23;;;23.40;75.90;;;;;;6159475;23;20001;-77
2022/08/14 10:55:13;;;;;;;19.40;13.38;;;23.40;75.60;;;;;;6158487;23;20012;-78
2022/08/14 10:57:53;;;;;;;20.08;13.38;;;23.40;75.70;;;;;;6159682;23;20006;-78
2022/08/14 11:00:25;;;;;;;18.23;12.35;;;23.50;75.10;;;;;;6159472;23;20016;-78
2022/08/14 11:03:13;;;;;;;20.10;12.68;;;23.70;75.10;;;;;;6159519;23;20001;-79
2022/08/14 11:05:44;;;;;;;16.90;12.70;;;23.70;74.90;;;;;;6159241;23;20009;-78
2022/08/14 11:08:14;;;;;;;17.92;11.93;;;23.70;74.90;;;;;;6159267;23;20060;-81
2022/08/14 11:10:54;;;;;;;18.88;13.68;;;23.70;74.50;;;;;;6159387;23;20032;-79
2022/08/14 11:13:26;;;;;;;19.48;12.43;;;23.70;74.00;;;;;;6158012;23;20005;-81
2022/08/14 11:15:54;;;;;;;18.38;12.00;;;23.80;74.00;;;;;;6159156;23;19998;-86
2022/08/14 11:18:21;;;;;;;19.00;12.95;;;23.80;73.90;;;;;;6158228;23;20014;-78
2022/08/14 11:20:55;;;;;;;18.40;12.38;;;23.80;73.80;;;;;;6158053;23;20346;-81
2022/08/14 11:23:32;;;;;;;18.70;12.75;;;23.80;73.70;;;;;;6159470;23;20414;-81
2022/08/14 11:26:00;;;;;;;17.98;11.98;;;23.80;73.40;;;;;;6157151;23;20041;-76
2022/08/14 11:28:28;;;;;;;22.15;12.25;;;23.90;73.20;;;;;;6149624;23;20079;-77
2022/08/14 11:30:57;;;;;;;17.80;12.35;;;23.90;73.60;;;;;;6156647;23;20021;-76
2022/08/14 11:33:33;;;;;;;17.95;12.57;;;24.00;73.60;;;;;;6155722;23;20056;-76
2022/08/14 11:36:01;;;;;;;16.55;12.30;;;24.00;73.70;;;;;;6156207;23;20009;-76
2022/08/14 11:38:34;;;;;;;19.70;12.65;;;24.10;73.50;;;;;;6156397;23;20005;-75
2022/08/14 11:41:00;;;;;;;20.15;12.63;;;24.10;73.30;;;;;;6158014;23;20006;-76
2022/08/14 11:43:26;;;;;;;20.13;13.13;;;24.10;73.90;;;;;;6157728;23;20086;-76
2022/08/14 11:45:52;;;;;;;23.70;12.93;;;24.10;74.80;;;;;;6155990;23;20433;-76
2022/08/14 11:48:20;;;;;;;17.83;12.63;;;24.10;74.70;;;;;;6157193;23;20483;-76
2022/08/14 11:50:48;;;;;;;21.25;12.68;;;24.10;74.20;;;;;;6156980;23;20002;-76
2022/08/14 11:53:29;;;;;;;22.45;13.10;;;24.00;74.20;;;;;;6156210;23;20080;-76
2022/08/14 11:56:01;;;;;;;16.10;11.00;;;24.10;74.40;;;;;;6157690;23;20037;-76
2022/08/14 11:58:30;;;;;;;18.38;11.82;;;24.20;74.10;;;;;;6158155;23;20536;-76
2022/08/14 12:01:27;;;;;;;18.05;11.23;;;24.10;74.20;;;;;;6154449;23;20029;-76
2022/08/14 12:03:57;;;;;;;18.92;11.60;;;24.00;74.00;;;;;;6154159;23;20101;-76
2022/08/14 12:06:24;;;;;;;;;;;24.00;74.00;;;;;;6156569;23;20401;-77
2022/08/14 12:08:52;;;;;;;23.35;12.13;;;24.00;74.30;;;;;;6155748;23;19915;-76
2022/08/14 12:11:18;;;;;;;16.63;10.65;;;24.10;73.90;;;;;;6145626;23;19999;-76
2022/08/14 12:13:44;;;;;;;16.40;11.55;;;24.10;74.10;;;;;;6152674;23;20080;-76
2022/08/14 12:16:15;;;;;;;15.43;10.75;;;24.10;73.50;;;;;;6155450;23;20008;-77
2022/08/14 12:18:44;;;;;;;16.02;10.98;;;24.10;73.50;;;;;;6156508;23;20009;-76
2022/08/14 12:21:17;;;;;;;18.23;11.65;;;24.10;73.40;;;;;;6156323;23;20758;-76
2022/08/14 12:23:44;;;;;;;15.07;11.13;;;24.00;73.20;;;;;;6154729;23;20138;-76
2022/08/14 12:26:16;;;;;;;17.35;10.48;;;24.00;73.50;;;;;;6156913;23;20084;-77
2022/08/14 12:28:50;;;;;;;19.58;11.98;;;23.90;73.70;;;;;;6154425;23;20078;-76
2022/08/14 12:31:18;;;;;;;17.10;11.35;;;23.90;74.00;;;;;;6156642;23;20008;-77
2022/08/14 12:34:07;;;;;;;17.52;11.18;;;23.80;74.90;;;;;;6157051;23;20040;-76
2022/08/14 12:36:33;;;;;;;17.60;9.93;;;23.80;74.30;;;;;;6156817;23;20006;-76
2022/08/14 12:39:22;;;;;;;17.15;11.45;;;23.80;74.30;;;;;;6157221;23;20071;-76
2022/08/14 12:41:55;;;;;;;20.30;11.47;;;23.70;74.90;;;;;;6154864;23;20005;-76
2022/08/14 12:44:41;;;;;;;17.60;11.43;;;23.70;74.80;;;;;;6155827;23;20013;-75
2022/08/14 12:47:12;;;;;;;17.52;11.07;;;23.70;74.60;;;;;;6156881;23;20078;-77
2022/08/14 12:49:52;;;;;;;16.90;12.00;;;23.50;74.90;;;;;;6156254;23;20005;-82
2022/08/14 12:52:29;;;;;;;21.67;13.13;;;23.50;75.50;;;;;;6154682;23;20009;-78
2022/08/14 12:55:06;;;;;;;18.67;12.32;;;23.50;76.20;;;;;;6159304;23;20401;-79
2022/08/14 12:57:42;;;;;;;18.27;11.25;;;23.50;75.40;;;;;;6156837;23;20009;-77
2022/08/14 13:00:18;;;;;;;18.58;10.93;;;23.40;75.30;;;;;;6156984;23;20009;-77
2022/08/14 13:02:46;;;;;;;17.85;11.75;;;23.40;75.40;;;;;;6155917;23;20826;-77
2022/08/14 13:05:13;;;;;;;16.50;11.00;;;23.40;75.40;;;;;;6131194;23;20051;-77